sensor_id;sensor_type;location;lat;lon;timestamp;temperature;humidity
52555;DHT22;38455;52.710;6.502;2023-04-01T00:00:29;10.10;99.90
52555;DHT22;38455;52.710;6.502;2023-04-01T00:02:55;10.00;99.90
52555;DHT22;38455;52.710;6.502;2023-04-01T00:05:21;10.10;99.90
52555;DHT22;38455;52.710;6.502;2023-04-01T00:07:46;10.00;99.90
52555;DHT22;38455;52.710;6.502;2023-04-01T00:10:12;10.10;99.90
52555;DHT22;38455;52.710;6.502;2023-04-01T00:12:39;10.00;99.90
52555;DHT22;38455;52.710;6.502;2023-04-01T00:15:06;10.00;99.90
52555;DHT22;38455;52.710;6.502;2023-04-01T00:17:33;10.00;99.90
52555;DHT22;38455;52.710;6.502;2023-04-01T00:19:59;10.00;99.90
52555;DHT22;38455;52.710;6.502;2023-04-01T00:22:25;10.00;99.90
52555;DHT22;38455;52.710;6.502;2023-04-01T00:24:52;10.00;99.90
52555;DHT22;38455;52.710;6.502;2023-04-01T00:27:18;10.00;99.90
52555;DHT22;38455;52.710;6.502;2023-04-01T00:29:45;9.90;99.90
52555;DHT22;38455;52.710;6.502;2023-04-01T00:32:11;9.90;99.90
52555;DHT22;38455;52.710;6.502;2023-04-01T00:34:36;9.90;99.90
52555;DHT22;38455;52.710;6.502;2023-04-01T00:37:03;9.90;99.90
52555;DHT22;38455;52.710;6.502;2023-04-01T00:39:30;9.90;99.90
52555;DHT22;38455;52.710;6.502;2023-04-01T00:41:56;9.90;99.90
52555;DHT22;38455;52.710;6.502;2023-04-01T00:44:23;10.00;99.90
52555;DHT22;38455;52.710;6.502;2023-04-01T00:46:49;10.00;99.90
52555;DHT22;38455;52.710;6.502;2023-04-01T00:49:17;10.00;99.90
52555;DHT22;38455;52.710;6.502;2023-04-01T00:51:45;10.00;99.90
52555;DHT22;38455;52.710;6.502;2023-04-01T00:54:14;10.00;99.90
52555;DHT22;38455;52.710;6.502;2023-04-01T00:56:54;9.90;99.90
52555;DHT22;38455;52.710;6.502;2023-04-01T00:59:27;10.00;99.90
52555;DHT22;38455;52.710;6.502;2023-04-01T01:01:53;9.90;99.90
52555;DHT22;38455;52.710;6.502;2023-04-01T01:04:29;9.90;99.90
52555;DHT22;38455;52.710;6.502;2023-04-01T01:12:25;10.00;99.90
52555;DHT22;38455;52.710;6.502;2023-04-01T01:17:52;10.00;99.90
52555;DHT22;38455;52.710;6.502;2023-04-01T01:23:50;9.90;99.90
52555;DHT22;38455;52.710;6.502;2023-04-01T01:34:52;10.00;99.90
52555;DHT22;38455;52.710;6.502;2023-04-01T01:37:22;10.00;99.90
52555;DHT22;38455;52.710;6.502;2023-04-01T01:39:54;9.90;99.90
52555;DHT22;38455;52.710;6.502;2023-04-01T01:42:22;9.90;99.90
52555;DHT22;38455;52.710;6.502;2023-04-01T01:44:50;9.90;99.90
52555;DHT22;38455;52.710;6.502;2023-04-01T01:47:19;10.00;99.90
52555;DHT22;38455;52.710;6.502;2023-04-01T01:49:45;9.90;99.90
52555;DHT22;38455;52.710;6.502;2023-04-01T01:52:12;10.00;99.90
52555;DHT22;38455;52.710;6.502;2023-04-01T01:54:52;10.00;99.90
52555;DHT22;38455;52.710;6.502;2023-04-01T01:57:26;10.00;99.90
52555;DHT22;38455;52.710;6.502;2023-04-01T01:59:56;9.90;99.90
52555;DHT22;38455;52.710;6.502;2023-04-01T02:02:24;9.90;99.90
52555;DHT22;38455;52.710;6.502;2023-04-01T02:04:51;10.00;99.90
52555;DHT22;38455;52.710;6.502;2023-04-01T02:07:25;9.90;99.90
52555;DHT22;38455;52.710;6.502;2023-04-01T02:09:53;10.00;99.90
52555;DHT22;38455;52.710;6.502;2023-04-01T02:12:19;9.90;99.90
52555;DHT22;38455;52.710;6.502;2023-04-01T02:14:56;9.90;99.90
52555;DHT22;38455;52.710;6.502;2023-04-01T02:17:30;9.90;99.90
52555;DHT22;38455;52.710;6.502;2023-04-01T02:19:59;9.90;99.90
52555;DHT22;38455;52.710;6.502;2023-04-01T02:22:29;10.00;99.90
52555;DHT22;38455;52.710;6.502;2023-04-01T02:25:07;10.00;99.90
52555;DHT22;38455;52.710;6.502;2023-04-01T02:27:33;9.90;99.90
52555;DHT22;38455;52.710;6.502;2023-04-01T02:29:59;10.00;99.90
52555;DHT22;38455;52.710;6.502;2023-04-01T02:32:26;9.90;99.90
52555;DHT22;38455;52.710;6.502;2023-04-01T02:34:53;9.90;99.90
52555;DHT22;38455;52.710;6.502;2023-04-01T02:37:20;9.90;99.90
52555;DHT22;38455;52.710;6.502;2023-04-01T02:39:45;10.00;99.90
52555;DHT22;38455;52.710;6.502;2023-04-01T02:42:11;10.00;99.90
52555;DHT22;38455;52.710;6.502;2023-04-01T02:44:38;10.00;99.90
52555;DHT22;38455;52.710;6.502;2023-04-01T02:47:04;10.00;99.90
52555;DHT22;38455;52.710;6.502;2023-04-01T02:49:29;10.00;99.90
52555;DHT22;38455;52.710;6.502;2023-04-01T02:51:55;10.00;99.90
52555;DHT22;38455;52.710;6.502;2023-04-01T02:54:21;10.00;99.90
52555;DHT22;38455;52.710;6.502;2023-04-01T02:56:46;10.00;99.90
52555;DHT22;38455;52.710;6.502;2023-04-01T02:59:12;10.00;99.90
52555;DHT22;38455;52.710;6.502;2023-04-01T03:01:38;10.00;99.90
52555;DHT22;38455;52.710;6.502;2023-04-01T03:04:04;10.00;99.90
52555;DHT22;38455;52.710;6.502;2023-04-01T03:06:30;10.00;99.90
52555;DHT22;38455;52.710;6.502;2023-04-01T03:08:56;10.00;99.90
52555;DHT22;38455;52.710;6.502;2023-04-01T03:11:21;10.00;99.90
52555;DHT22;38455;52.710;6.502;2023-04-01T03:13:47;10.00;99.90
52555;DHT22;38455;52.710;6.502;2023-04-01T03:16:14;10.00;99.90
52555;DHT22;38455;52.710;6.502;2023-04-01T03:18:40;10.00;99.90
52555;DHT22;38455;52.710;6.502;2023-04-01T03:21:23;10.10;99.90
52555;DHT22;38455;52.710;6.502;2023-04-01T03:23:48;10.00;99.90
52555;DHT22;38455;52.710;6.502;2023-04-01T03:26:15;10.00;99.90
52555;DHT22;38455;52.710;6.502;2023-04-01T03:28:41;10.00;99.90
52555;DHT22;38455;52.710;6.502;2023-04-01T03:31:06;10.00;99.90
52555;DHT22;38455;52.710;6.502;2023-04-01T03:33:32;10.00;99.90
52555;DHT22;38455;52.710;6.502;2023-04-01T03:35:58;10.00;99.90
52555;DHT22;38455;52.710;6.502;2023-04-01T03:38:24;10.00;99.90
52555;DHT22;38455;52.710;6.502;2023-04-01T03:40:49;10.00;99.90
52555;DHT22;38455;52.710;6.502;2023-04-01T03:43:15;10.00;99.90
52555;DHT22;38455;52.710;6.502;2023-04-01T03:45:50;10.00;99.90
52555;DHT22;38455;52.710;6.502;2023-04-01T03:48:16;10.00;99.90
52555;DHT22;38455;52.710;6.502;2023-04-01T03:50:42;10.00;99.90
52555;DHT22;38455;52.710;6.502;2023-04-01T03:53:08;10.00;99.90
52555;DHT22;38455;52.710;6.502;2023-04-01T03:55:37;10.00;99.90
52555;DHT22;38455;52.710;6.502;2023-04-01T03:58:06;10.00;99.90
52555;DHT22;38455;52.710;6.502;2023-04-01T04:00:32;10.00;99.90
52555;DHT22;38455;52.710;6.502;2023-04-01T04:02:58;10.10;99.90
52555;DHT22;38455;52.710;6.502;2023-04-01T04:05:25;10.00;99.90
52555;DHT22;38455;52.710;6.502;2023-04-01T04:07:52;10.00;99.90
52555;DHT22;38455;52.710;6.502;2023-04-01T04:10:18;10.00;99.90
52555;DHT22;38455;52.710;6.502;2023-04-01T04:12:44;10.00;99.90
52555;DHT22;38455;52.710;6.502;2023-04-01T04:15:10;10.10;99.90
52555;DHT22;38455;52.710;6.502;2023-04-01T04:17:36;10.00;99.90
52555;DHT22;38455;52.710;6.502;2023-04-01T04:20:02;10.00;99.90
52555;DHT22;38455;52.710;6.502;2023-04-01T04:22:28;10.00;99.90
52555;DHT22;38455;52.710;6.502;2023-04-01T04:24:54;10.00;99.90
52555;DHT22;38455;52.710;6.502;2023-04-01T04:27:20;10.00;99.90
52555;DHT22;38455;52.710;6.502;2023-04-01T04:29:45;10.00;99.90
52555;DHT22;38455;52.710;6.502;2023-04-01T04:32:11;10.00;99.90
52555;DHT22;38455;52.710;6.502;2023-04-01T04:34:37;10.00;99.90
52555;DHT22;38455;52.710;6.502;2023-04-01T04:37:03;10.10;99.90
52555;DHT22;38455;52.710;6.502;2023-04-01T04:39:29;10.10;99.90
52555;DHT22;38455;52.710;6.502;2023-04-01T04:41:54;10.00;99.90
52555;DHT22;38455;52.710;6.502;2023-04-01T04:44:20;10.00;99.90
52555;DHT22;38455;52.710;6.502;2023-04-01T04:46:46;10.00;99.90
52555;DHT22;38455;52.710;6.502;2023-04-01T04:49:12;10.10;99.90
52555;DHT22;38455;52.710;6.502;2023-04-01T04:51:38;10.10;99.90
52555;DHT22;38455;52.710;6.502;2023-04-01T04:54:04;10.10;99.90
52555;DHT22;38455;52.710;6.502;2023-04-01T04:56:30;10.00;99.90
52555;DHT22;38455;52.710;6.502;2023-04-01T04:58:56;10.10;99.90
52555;DHT22;38455;52.710;6.502;2023-04-01T05:01:22;10.10;99.90
52555;DHT22;38455;52.710;6.502;2023-04-01T05:03:48;10.00;99.90
52555;DHT22;38455;52.710;6.502;2023-04-01T05:06:14;10.10;99.90
52555;DHT22;38455;52.710;6.502;2023-04-01T05:08:41;10.10;99.90
52555;DHT22;38455;52.710;6.502;2023-04-01T05:11:11;10.10;99.90
52555;DHT22;38455;52.710;6.502;2023-04-01T05:13:37;10.10;99.90
52555;DHT22;38455;52.710;6.502;2023-04-01T05:16:03;10.10;99.90
52555;DHT22;38455;52.710;6.502;2023-04-01T05:18:29;10.10;99.90
52555;DHT22;38455;52.710;6.502;2023-04-01T05:20:55;10.10;99.90
52555;DHT22;38455;52.710;6.502;2023-04-01T05:23:21;10.10;99.90
52555;DHT22;38455;52.710;6.502;2023-04-01T05:25:51;10.10;99.90
52555;DHT22;38455;52.710;6.502;2023-04-01T05:28:19;10.10;99.90
52555;DHT22;38455;52.710;6.502;2023-04-01T05:30:45;10.10;99.90
52555;DHT22;38455;52.710;6.502;2023-04-01T05:33:12;10.10;99.90
52555;DHT22;38455;52.710;6.502;2023-04-01T05:35:38;10.10;99.90
52555;DHT22;38455;52.710;6.502;2023-04-01T05:38:04;10.10;99.90
52555;DHT22;38455;52.710;6.502;2023-04-01T05:40:30;10.10;99.90
52555;DHT22;38455;52.710;6.502;2023-04-01T05:42:56;10.10;99.90
52555;DHT22;38455;52.710;6.502;2023-04-01T05:45:23;10.10;99.90
52555;DHT22;38455;52.710;6.502;2023-04-01T05:47:48;10.20;99.90
52555;DHT22;38455;52.710;6.502;2023-04-01T05:50:14;10.10;99.90
52555;DHT22;38455;52.710;6.502;2023-04-01T05:52:40;10.10;99.90
52555;DHT22;38455;52.710;6.502;2023-04-01T05:55:06;10.20;99.90
52555;DHT22;38455;52.710;6.502;2023-04-01T05:57:32;10.10;99.90
52555;DHT22;38455;52.710;6.502;2023-04-01T05:59:58;10.10;99.90
52555;DHT22;38455;52.710;6.502;2023-04-01T06:02:23;10.10;99.90
52555;DHT22;38455;52.710;6.502;2023-04-01T06:04:49;10.20;99.90
52555;DHT22;38455;52.710;6.502;2023-04-01T06:07:20;10.20;99.90
52555;DHT22;38455;52.710;6.502;2023-04-01T06:09:45;10.20;99.90
52555;DHT22;38455;52.710;6.502;2023-04-01T06:12:32;10.20;99.90
52555;DHT22;38455;52.710;6.502;2023-04-01T06:17:56;10.30;99.90
52555;DHT22;38455;52.710;6.502;2023-04-01T06:20:42;10.20;99.90
52555;DHT22;38455;52.710;6.502;2023-04-01T06:23:28;10.30;99.90
52555;DHT22;38455;52.710;6.502;2023-04-01T06:31:36;10.30;99.90
52555;DHT22;38455;52.710;6.502;2023-04-01T06:39:29;10.30;99.90
52555;DHT22;38455;52.710;6.502;2023-04-01T06:48:12;10.40;99.90
52555;DHT22;38455;52.710;6.502;2023-04-01T06:50:48;10.40;99.90
52555;DHT22;38455;52.710;6.502;2023-04-01T06:53:21;10.40;99.90
52555;DHT22;38455;52.710;6.502;2023-04-01T06:55:57;10.50;99.90
52555;DHT22;38455;52.710;6.502;2023-04-01T06:58:35;10.50;99.90
52555;DHT22;38455;52.710;6.502;2023-04-01T07:01:06;10.60;99.90
52555;DHT22;38455;52.710;6.502;2023-04-01T07:03:47;10.60;99.90
52555;DHT22;38455;52.710;6.502;2023-04-01T07:06:42;10.60;99.90
52555;DHT22;38455;52.710;6.502;2023-04-01T07:09:13;10.70;99.90
52555;DHT22;38455;52.710;6.502;2023-04-01T07:11:42;10.70;99.90
52555;DHT22;38455;52.710;6.502;2023-04-01T07:14:35;10.70;99.90
52555;DHT22;38455;52.710;6.502;2023-04-01T07:19:34;10.80;99.90
52555;DHT22;38455;52.710;6.502;2023-04-01T07:24:51;10.90;99.90
52555;DHT22;38455;52.710;6.502;2023-04-01T07:27:18;10.90;99.90
52555;DHT22;38455;52.710;6.502;2023-04-01T07:29:43;11.00;99.90
52555;DHT22;38455;52.710;6.502;2023-04-01T07:32:20;11.00;99.90
52555;DHT22;38455;52.710;6.502;2023-04-01T07:34:54;11.10;99.90
52555;DHT22;38455;52.710;6.502;2023-04-01T07:38:17;11.10;99.90
52555;DHT22;38455;52.710;6.502;2023-04-01T07:46:20;11.10;99.90
52555;DHT22;38455;52.710;6.502;2023-04-01T07:51:31;11.10;99.90
52555;DHT22;38455;52.710;6.502;2023-04-01T07:57:01;11.20;99.90
52555;DHT22;38455;52.710;6.502;2023-04-01T08:02:29;11.20;99.90
52555;DHT22;38455;52.710;6.502;2023-04-01T08:08:18;11.20;99.90
52555;DHT22;38455;52.710;6.502;2023-04-01T08:11:13;11.20;99.90
52555;DHT22;38455;52.710;6.502;2023-04-01T08:21:30;11.30;99.90
52555;DHT22;38455;52.710;6.502;2023-04-01T08:23:58;11.30;99.90
52555;DHT22;38455;52.710;6.502;2023-04-01T08:29:02;11.40;99.90
52555;DHT22;38455;52.710;6.502;2023-04-01T08:32:03;11.40;99.90
52555;DHT22;38455;52.710;6.502;2023-04-01T08:34:26;11.60;99.90
52555;DHT22;38455;52.710;6.502;2023-04-01T08:37:02;11.70;99.90
52555;DHT22;38455;52.710;6.502;2023-04-01T08:39:32;11.80;99.90
52555;DHT22;38455;52.710;6.502;2023-04-01T08:56:07;12.10;99.90
52555;DHT22;38455;52.710;6.502;2023-04-01T09:07:20;12.10;99.90
52555;DHT22;38455;52.710;6.502;2023-04-01T09:27:11;12.00;99.90
52555;DHT22;38455;52.710;6.502;2023-04-01T09:32:48;12.10;99.90
52555;DHT22;38455;52.710;6.502;2023-04-01T09:38:11;12.20;99.90
52555;DHT22;38455;52.710;6.502;2023-04-01T09:46:24;12.30;99.90
52555;DHT22;38455;52.710;6.502;2023-04-01T09:48:56;12.30;99.90
52555;DHT22;38455;52.710;6.502;2023-04-01T09:51:35;12.20;99.90
52555;DHT22;38455;52.710;6.502;2023-04-01T09:54:34;12.30;99.90
52555;DHT22;38455;52.710;6.502;2023-04-01T10:17:56;12.50;99.90
52555;DHT22;38455;52.710;6.502;2023-04-01T10:28:20;12.30;99.90
52555;DHT22;38455;52.710;6.502;2023-04-01T10:46:49;13.10;99.90
52555;DHT22;38455;52.710;6.502;2023-04-01T10:49:47;13.20;99.90
52555;DHT22;38455;52.710;6.502;2023-04-01T11:14:26;13.50;99.90
52555;DHT22;38455;52.710;6.502;2023-04-01T11:28:15;13.40;99.90
52555;DHT22;38455;52.710;6.502;2023-04-01T11:39:11;13.50;99.90
52555;DHT22;38455;52.710;6.502;2023-04-01T11:44:33;13.50;99.90
52555;DHT22;38455;52.710;6.502;2023-04-01T11:58:31;12.70;99.90
52555;DHT22;38455;52.710;6.502;2023-04-01T12:01:17;12.40;99.90
52555;DHT22;38455;52.710;6.502;2023-04-01T12:04:00;12.30;99.90
52555;DHT22;38455;52.710;6.502;2023-04-01T12:22:40;11.90;99.90
52555;DHT22;38455;52.710;6.502;2023-04-01T12:28:24;12.00;99.90
52555;DHT22;38455;52.710;6.502;2023-04-01T12:31:18;11.80;99.90
52555;DHT22;38455;52.710;6.502;2023-04-01T12:34:13;11.80;99.90
52555;DHT22;38455;52.710;6.502;2023-04-01T12:45:29;11.60;99.90
52555;DHT22;38455;52.710;6.502;2023-04-01T12:50:32;11.50;99.90
52555;DHT22;38455;52.710;6.502;2023-04-01T12:56:27;11.50;99.90
52555;DHT22;38455;52.710;6.502;2023-04-01T12:59:18;11.40;99.90
52555;DHT22;38455;52.710;6.502;2023-04-01T13:10:25;11.20;99.90
52555;DHT22;38455;52.710;6.502;2023-04-01T13:20:54;11.10;99.90
52555;DHT22;38455;52.710;6.502;2023-04-01T13:29:03;11.10;99.90
52555;DHT22;38455;52.710;6.502;2023-04-01T13:34:38;11.20;99.90
52555;DHT22;38455;52.710;6.502;2023-04-01T13:42:55;11.10;99.90
52555;DHT22;38455;52.710;6.502;2023-04-01T13:48:23;11.20;99.90
52555;DHT22;38455;52.710;6.502;2023-04-01T13:51:11;11.20;99.90
52555;DHT22;38455;52.710;6.502;2023-04-01T13:53:59;11.10;99.90
52555;DHT22;38455;52.710;6.502;2023-04-01T14:02:20;11.00;99.90
52555;DHT22;38455;52.710;6.502;2023-04-01T14:23:42;10.70;99.90
52555;DHT22;38455;52.710;6.502;2023-04-01T14:26:21;10.70;99.90
52555;DHT22;38455;52.710;6.502;2023-04-01T14:29:18;10.70;99.90
52555;DHT22;38455;52.710;6.502;2023-04-01T14:32:51;10.60;99.90
52555;DHT22;38455;52.710;6.502;2023-04-01T14:34:54;10.70;99.90
52555;DHT22;38455;52.710;6.502;2023-04-01T14:46:01;10.60;99.90
52555;DHT22;38455;52.710;6.502;2023-04-01T14:48:50;10.60;99.90
52555;DHT22;38455;52.710;6.502;2023-04-01T14:51:39;10.60;99.90
52555;DHT22;38455;52.710;6.502;2023-04-01T14:56:39;10.50;99.90
52555;DHT22;38455;52.710;6.502;2023-04-01T14:59:28;10.60;99.90
52555;DHT22;38455;52.710;6.502;2023-04-01T15:07:51;10.70;99.90
52555;DHT22;38455;52.710;6.502;2023-04-01T15:13:12;10.70;99.90
52555;DHT22;38455;52.710;6.502;2023-04-01T15:18:44;10.40;99.90
52555;DHT22;38455;52.710;6.502;2023-04-01T15:32:13;10.30;99.90
52555;DHT22;38455;52.710;6.502;2023-04-01T15:34:56;10.30;99.90
52555;DHT22;38455;52.710;6.502;2023-04-01T15:42:48;10.20;99.90
52555;DHT22;38455;52.710;6.502;2023-04-01T16:13:09;10.20;99.90
52555;DHT22;38455;52.710;6.502;2023-04-01T16:16:13;10.10;99.90
52555;DHT22;38455;52.710;6.502;2023-04-01T16:19:05;10.00;99.90
52555;DHT22;38455;52.710;6.502;2023-04-01T16:21:51;10.00;99.90
52555;DHT22;38455;52.710;6.502;2023-04-01T16:24:45;9.80;99.90
52555;DHT22;38455;52.710;6.502;2023-04-01T16:27:27;9.80;99.90
52555;DHT22;38455;52.710;6.502;2023-04-01T16:30:17;9.80;99.90
52555;DHT22;38455;52.710;6.502;2023-04-01T16:32:54;9.80;99.90
52555;DHT22;38455;52.710;6.502;2023-04-01T16:35:34;9.70;99.90
52555;DHT22;38455;52.710;6.502;2023-04-01T16:38:15;9.70;99.90
52555;DHT22;38455;52.710;6.502;2023-04-01T16:41:16;9.70;99.90
52555;DHT22;38455;52.710;6.502;2023-04-01T16:43:50;9.60;99.90
52555;DHT22;38455;52.710;6.502;2023-04-01T16:46:30;9.50;99.90
52555;DHT22;38455;52.710;6.502;2023-04-01T16:55:02;9.40;99.90
52555;DHT22;38455;52.710;6.502;2023-04-01T16:57:45;9.40;99.90
52555;DHT22;38455;52.710;6.502;2023-04-01T17:00:37;9.30;99.90
52555;DHT22;38455;52.710;6.502;2023-04-01T17:05:48;9.20;99.90
52555;DHT22;38455;52.710;6.502;2023-04-01T17:08:28;9.30;99.90
52555;DHT22;38455;52.710;6.502;2023-04-01T17:11:15;9.20;99.90
52555;DHT22;38455;52.710;6.502;2023-04-01T17:22:04;9.10;99.90
52555;DHT22;38455;52.710;6.502;2023-04-01T17:27:08;9.00;99.90
52555;DHT22;38455;52.710;6.502;2023-04-01T17:30:13;8.90;99.90
52555;DHT22;38455;52.710;6.502;2023-04-01T17:35:38;8.90;99.90
52555;DHT22;38455;52.710;6.502;2023-04-01T17:46:29;8.80;99.90
52555;DHT22;38455;52.710;6.502;2023-04-01T17:51:42;8.70;99.90
52555;DHT22;38455;52.710;6.502;2023-04-01T18:05:39;8.50;99.90
52555;DHT22;38455;52.710;6.502;2023-04-01T18:14:29;8.40;99.90
52555;DHT22;38455;52.710;6.502;2023-04-01T18:22:36;8.30;99.90
52555;DHT22;38455;52.710;6.502;2023-04-01T18:33:42;8.20;99.90
52555;DHT22;38455;52.710;6.502;2023-04-01T18:39:42;8.30;99.90
52555;DHT22;38455;52.710;6.502;2023-04-01T18:42:43;8.20;99.90
52555;DHT22;38455;52.710;6.502;2023-04-01T18:45:26;8.20;99.90
52555;DHT22;38455;52.710;6.502;2023-04-01T18:50:37;8.10;99.90
52555;DHT22;38455;52.710;6.502;2023-04-01T18:56:22;8.00;99.90
52555;DHT22;38455;52.710;6.502;2023-04-01T18:58:52;8.00;99.90
52555;DHT22;38455;52.710;6.502;2023-04-01T19:01:48;8.00;99.90
52555;DHT22;38455;52.710;6.502;2023-04-01T19:04:41;7.90;99.90
52555;DHT22;38455;52.710;6.502;2023-04-01T19:13:11;7.80;99.90
52555;DHT22;38455;52.710;6.502;2023-04-01T19:21:26;7.70;99.90
52555;DHT22;38455;52.710;6.502;2023-04-01T19:26:43;7.70;99.90
52555;DHT22;38455;52.710;6.502;2023-04-01T19:32:05;7.60;99.90
52555;DHT22;38455;52.710;6.502;2023-04-01T19:34:55;7.60;99.90
52555;DHT22;38455;52.710;6.502;2023-04-01T19:42:54;7.60;99.90
52555;DHT22;38455;52.710;6.502;2023-04-01T19:45:34;7.60;99.90
52555;DHT22;38455;52.710;6.502;2023-04-01T19:51:07;7.50;99.90
52555;DHT22;38455;52.710;6.502;2023-04-01T19:56:22;7.50;99.90
52555;DHT22;38455;52.710;6.502;2023-04-01T19:59:10;7.40;99.90
52555;DHT22;38455;52.710;6.502;2023-04-01T20:04:18;7.40;99.90
52555;DHT22;38455;52.710;6.502;2023-04-01T20:07:04;7.40;99.90
52555;DHT22;38455;52.710;6.502;2023-04-01T20:09:54;7.40;99.90
52555;DHT22;38455;52.710;6.502;2023-04-01T20:15:35;7.40;99.90
52555;DHT22;38455;52.710;6.502;2023-04-01T20:18:23;7.40;99.90
52555;DHT22;38455;52.710;6.502;2023-04-01T20:24:04;7.30;99.90
52555;DHT22;38455;52.710;6.502;2023-04-01T20:26:38;7.30;99.90
52555;DHT22;38455;52.710;6.502;2023-04-01T20:29:41;7.30;99.90
52555;DHT22;38455;52.710;6.502;2023-04-01T20:32:18;7.30;99.90
52555;DHT22;38455;52.710;6.502;2023-04-01T20:40:52;7.20;99.90
52555;DHT22;38455;52.710;6.502;2023-04-01T20:51:32;7.20;99.90
52555;DHT22;38455;52.710;6.502;2023-04-01T20:54:26;7.10;99.90
52555;DHT22;38455;52.710;6.502;2023-04-01T21:11:37;7.00;99.90
52555;DHT22;38455;52.710;6.502;2023-04-01T21:17:08;6.90;99.90
52555;DHT22;38455;52.710;6.502;2023-04-01T21:20:14;6.90;99.90
52555;DHT22;38455;52.710;6.502;2023-04-01T21:25:59;6.90;99.90
52555;DHT22;38455;52.710;6.502;2023-04-01T21:34:28;6.90;99.90
52555;DHT22;38455;52.710;6.502;2023-04-01T21:37:08;6.80;99.90
52555;DHT22;38455;52.710;6.502;2023-04-01T21:42:41;6.70;99.90
52555;DHT22;38455;52.710;6.502;2023-04-01T21:48:16;6.80;99.90
52555;DHT22;38455;52.710;6.502;2023-04-01T21:51:29;6.80;99.90
52555;DHT22;38455;52.710;6.502;2023-04-01T22:02:36;6.60;99.90
52555;DHT22;38455;52.710;6.502;2023-04-01T22:05:07;6.60;99.90
52555;DHT22;38455;52.710;6.502;2023-04-01T22:12:50;6.60;99.90
52555;DHT22;38455;52.710;6.502;2023-04-01T22:15:23;6.60;99.90
52555;DHT22;38455;52.710;6.502;2023-04-01T22:29:07;6.60;99.90
52555;DHT22;38455;52.710;6.502;2023-04-01T22:34:19;6.60;99.90
52555;DHT22;38455;52.710;6.502;2023-04-01T22:45:35;6.40;99.90
52555;DHT22;38455;52.710;6.502;2023-04-01T22:48:37;6.50;99.90
52555;DHT22;38455;52.710;6.502;2023-04-01T22:54:13;6.40;99.90
52555;DHT22;38455;52.710;6.502;2023-04-01T22:56:45;6.50;99.90
52555;DHT22;38455;52.710;6.502;2023-04-01T22:59:31;6.40;99.90
52555;DHT22;38455;52.710;6.502;2023-04-01T23:02:06;6.40;99.90
52555;DHT22;38455;52.710;6.502;2023-04-01T23:04:39;6.40;99.90
52555;DHT22;38455;52.710;6.502;2023-04-01T23:09:48;6.30;99.90
52555;DHT22;38455;52.710;6.502;2023-04-01T23:12:15;6.30;99.90
52555;DHT22;38455;52.710;6.502;2023-04-01T23:14:50;6.40;99.90
52555;DHT22;38455;52.710;6.502;2023-04-01T23:20:34;6.30;99.90
52555;DHT22;38455;52.710;6.502;2023-04-01T23:23:24;6.30;99.90
52555;DHT22;38455;52.710;6.502;2023-04-01T23:26:02;6.20;99.90
52555;DHT22;38455;52.710;6.502;2023-04-01T23:31:29;6.20;99.90
52555;DHT22;38455;52.710;6.502;2023-04-01T23:36:43;6.10;99.90
52555;DHT22;38455;52.710;6.502;2023-04-01T23:39:25;6.10;99.90
52555;DHT22;38455;52.710;6.502;2023-04-01T23:41:54;6.10;99.90
52555;DHT22;38455;52.710;6.502;2023-04-01T23:44:20;6.00;99.90
52555;DHT22;38455;52.710;6.502;2023-04-01T23:46:47;6.00;99.90
52555;DHT22;38455;52.710;6.502;2023-04-01T23:49:19;5.90;99.90
52555;DHT22;38455;52.710;6.502;2023-04-01T23:51:54;5.90;99.90
52555;DHT22;38455;52.710;6.502;2023-04-01T23:57:17;5.90;99.90
52555;DHT22;38455;52.710;6.502;2023-04-01T23:59:43;5.80;99.90
